createdAt,value
2023-02-24T00:04:20.494Z,1.15
2023-02-24T00:09:23.184Z,1.17
2023-02-24T00:14:25.944Z,1.38
2023-02-24T00:19:29.177Z,1.13
2023-02-24T00:24:30.728Z,1.13
2023-02-24T00:29:32.745Z,1.45
2023-02-24T00:34:35.478Z,1.80
2023-02-24T00:39:41.549Z,1.98
2023-02-24T00:44:46.989Z,1.70
2023-02-24T00:49:50.065Z,1.23
2023-02-24T00:54:51.603Z,1.88
2023-02-24T00:59:53.101Z,1.95
2023-02-24T01:04:54.545Z,1.77
2023-02-24T01:09:57.601Z,1.63
2023-02-24T01:14:59.402Z,1.65
2023-02-24T01:20:15.831Z,1.75
2023-02-24T01:25:19.031Z,2.15
2023-02-24T01:30:20.692Z,1.60
2023-02-24T01:35:22.315Z,2.15
2023-02-24T01:40:26.996Z,2.30
2023-02-24T01:45:29.081Z,2.03
2023-02-24T01:50:30.896Z,1.75
2023-02-24T01:55:36.900Z,2.22
2023-02-24T02:00:45.300Z,1.95
2023-02-24T02:05:49.587Z,2.75
2023-02-24T02:10:54.093Z,2.55
2023-02-24T02:15:58.491Z,2.47
2023-02-24T02:21:03.176Z,2.30
2023-02-24T02:26:24.165Z,2.33
2023-02-24T02:31:37.817Z,2.28
2023-02-24T02:36:48.506Z,2.13
2023-02-24T02:41:49.951Z,1.92
2023-02-24T02:47:03.703Z,1.88
2023-02-24T02:52:17.893Z,2.05
2023-02-24T02:57:25.321Z,2.13
2023-02-24T03:02:29.876Z,1.75
2023-02-24T03:07:35.017Z,1.75
2023-02-24T03:12:39.279Z,2.22
2023-02-24T03:17:42.460Z,1.67
2023-02-24T03:22:52.516Z,2.22
2023-02-24T03:28:01.733Z,2.40
2023-02-24T03:33:12.575Z,2.37
2023-02-24T03:38:14.225Z,1.90
2023-02-24T03:43:22.782Z,2.15
2023-02-24T03:48:25.302Z,1.83
2023-02-24T03:53:40.644Z,1.75
2023-02-24T03:58:52.218Z,2.60
2023-02-24T04:04:07.475Z,1.90
2023-02-24T04:09:33.353Z,2.50
2023-02-24T04:14:41.535Z,2.00
2023-02-24T04:19:43.622Z,1.95
2023-02-24T04:24:46.654Z,1.83
2023-02-24T04:29:52.632Z,1.77
2023-02-24T04:35:00.829Z,1.80
2023-02-24T04:40:02.337Z,1.98
2023-02-24T04:45:10.115Z,2.05
2023-02-24T04:50:14.457Z,2.05
2023-02-24T04:55:17.263Z,2.65
2023-02-24T05:00:22.591Z,2.50
2023-02-24T05:05:25.695Z,2.50
2023-02-24T05:10:28.169Z,2.03
2023-02-24T05:15:33.561Z,2.88
2023-02-24T05:20:57.399Z,2.65
2023-02-24T05:25:58.947Z,2.40
2023-02-24T05:31:08.516Z,2.25
2023-02-24T05:36:12.156Z,2.70
2023-02-24T05:41:18.397Z,2.92
2023-02-24T05:46:20.614Z,2.45
2023-02-24T05:51:23.250Z,3.13
2023-02-24T05:56:25.212Z,3.83
2023-02-24T06:01:30.327Z,2.78
2023-02-24T06:06:35.272Z,2.83
2023-02-24T06:11:37.516Z,3.38
2023-02-24T06:16:40.396Z,2.80
2023-02-24T06:21:42.398Z,3.10
2023-02-24T06:26:44.317Z,3.17
2023-02-24T06:31:45.931Z,3.20
2023-02-24T06:36:49.057Z,3.03
2023-02-24T06:41:51.724Z,3.05
2023-02-24T06:46:53.165Z,3.17
2023-02-24T06:51:55.226Z,3.00
2023-02-24T06:56:58.620Z,2.70
2023-02-24T07:02:02.114Z,3.33
2023-02-24T07:07:03.962Z,3.63
2023-02-24T07:12:05.640Z,2.75
2023-02-24T07:17:08.595Z,2.83
2023-02-24T07:22:10.163Z,3.33
2023-02-24T07:27:18.200Z,3.90
2023-02-24T07:32:22.358Z,3.05
2023-02-24T07:37:24.403Z,2.88
2023-02-24T07:42:26.412Z,2.45
2023-02-24T07:47:27.894Z,2.38
2023-02-24T07:52:32.681Z,2.70
2023-02-24T07:57:37.306Z,3.10
2023-02-24T08:02:40.336Z,2.92
2023-02-24T08:07:42.661Z,2.53
2023-02-24T08:12:44.236Z,2.72
2023-02-24T08:17:47.514Z,2.42
2023-02-24T08:22:52.230Z,2.42
2023-02-24T08:28:12.845Z,2.53
2023-02-24T08:33:18.390Z,2.55
2023-02-24T08:38:21.130Z,2.03
2023-02-24T08:43:32.920Z,2.00
2023-02-24T08:48:38.659Z,3.00
2023-02-24T08:53:43.009Z,2.63
2023-02-24T08:58:48.526Z,2.40
2023-02-24T09:03:51.333Z,2.65
2023-02-24T09:09:14.239Z,2.30
2023-02-24T09:14:26.720Z,2.65
2023-02-24T09:19:41.081Z,2.47
2023-02-24T09:24:42.600Z,2.35
2023-02-24T09:29:49.371Z,2.60
2023-02-24T09:34:50.884Z,2.28
2023-02-24T09:40:18.610Z,2.40
2023-02-24T09:45:33.190Z,2.30
2023-02-24T09:51:02.080Z,2.30
2023-02-24T09:56:24.766Z,2.53
2023-02-24T10:01:46.425Z,1.77
2023-02-24T10:06:52.251Z,1.85
2023-02-24T10:11:55.419Z,2.13
2023-02-24T10:17:15.810Z,1.60
2023-02-24T10:22:50.834Z,2.05
2023-02-24T10:28:20.086Z,1.63
2023-02-24T10:33:26.652Z,1.52
2023-02-24T10:38:28.706Z,1.55
2023-02-24T10:43:30.546Z,1.98
2023-02-24T10:48:41.787Z,1.92
2023-02-24T10:53:53.168Z,1.92
2023-02-24T10:59:20.009Z,1.48
2023-02-24T11:04:27.994Z,1.63
2023-02-24T11:09:29.472Z,1.60
2023-02-24T11:14:50.252Z,1.23
2023-02-24T11:19:56.550Z,1.20
2023-02-24T11:25:04.865Z,1.42
2023-02-24T11:30:09.399Z,0.93
2023-02-24T11:35:23.343Z,1.50
2023-02-24T11:40:26.602Z,1.33
2023-02-24T11:45:46.522Z,0.85
2023-02-24T11:50:54.101Z,0.77
2023-02-24T11:55:59.249Z,1.00
2023-02-24T12:01:07.233Z,0.80
2023-02-24T12:06:28.969Z,1.10
2023-02-24T12:11:30.471Z,1.20
2023-02-24T12:16:35.704Z,0.93
2023-02-24T12:21:42.049Z,0.73
2023-02-24T12:27:06.276Z,0.88
2023-02-24T12:32:22.561Z,0.60
2023-02-24T12:37:24.155Z,0.80
2023-02-24T12:42:38.264Z,0.73
2023-02-24T12:47:48.257Z,0.90
2023-02-24T12:52:53.528Z,0.70
2023-02-24T12:58:09.516Z,0.55
2023-02-24T13:03:29.587Z,0.60
2023-02-24T13:08:36.796Z,0.52
2023-02-24T13:13:48.896Z,0.52
2023-02-24T13:18:50.451Z,0.60
2023-02-24T13:23:55.781Z,0.75
2023-02-24T13:29:00.664Z,0.85
2023-02-24T13:34:12.089Z,0.50
2023-02-24T13:39:32.182Z,0.50
2023-02-24T13:44:34.075Z,0.98
2023-02-24T13:50:05.507Z,0.70
2023-02-24T13:55:24.298Z,0.90
2023-02-24T14:00:44.818Z,0.60
2023-02-24T14:05:47.039Z,0.63
2023-02-24T14:10:51.882Z,0.70
2023-02-24T14:15:53.836Z,0.65
2023-02-24T14:20:56.435Z,0.57
2023-02-24T14:26:02.967Z,0.60
2023-02-24T14:31:14.471Z,0.85
2023-02-24T14:36:21.364Z,0.60
2023-02-24T14:41:24.074Z,0.68
2023-02-24T14:46:26.268Z,0.77
2023-02-24T14:51:31.383Z,0.40
2023-02-24T14:56:34.298Z,0.82
2023-02-24T15:01:35.931Z,0.90
2023-02-24T15:06:40.982Z,0.75
2023-02-24T15:11:42.712Z,0.60
2023-02-24T15:16:45.344Z,0.70
2023-02-24T15:21:46.850Z,0.60
2023-02-24T15:26:52.299Z,0.45
2023-02-24T15:31:55.354Z,0.50
2023-02-24T15:36:58.765Z,0.40
2023-02-24T15:42:22.234Z,0.68
2023-02-24T15:47:24.875Z,0.60
2023-02-24T15:52:27.939Z,0.52
2023-02-24T15:57:32.912Z,0.68
2023-02-24T16:02:34.413Z,0.82
2023-02-24T16:07:38.089Z,1.20
2023-02-24T16:12:43.902Z,0.63
2023-02-24T16:17:45.869Z,0.50
2023-02-24T16:22:47.412Z,0.47
2023-02-24T16:27:49.902Z,0.50
2023-02-24T16:32:51.516Z,1.05
2023-02-24T16:37:53.276Z,0.77
2023-02-24T16:42:54.744Z,1.10
2023-02-24T16:47:58.495Z,0.90
2023-02-24T16:53:00.953Z,0.50
2023-02-24T16:58:02.487Z,1.02
2023-02-24T17:03:06.277Z,1.95
2023-02-24T17:08:07.814Z,2.13
2023-02-24T17:13:12.950Z,1.27
2023-02-24T17:18:14.463Z,1.10
2023-02-24T17:23:16.200Z,0.77
2023-02-24T17:28:17.699Z,0.90
2023-02-24T17:33:19.320Z,2.22
2023-02-24T17:38:21.638Z,1.35
2023-02-24T17:43:23.476Z,1.10
2023-02-24T17:48:24.982Z,0.85
2023-02-24T17:53:26.664Z,1.30
2023-02-24T17:58:28.578Z,1.38
2023-02-24T18:03:30.733Z,1.23
2023-02-24T18:08:33.324Z,1.05
2023-02-24T18:13:34.944Z,2.05
2023-02-24T18:18:36.541Z,1.02
2023-02-24T18:23:41.158Z,0.77
2023-02-24T18:28:42.632Z,1.35
2023-02-24T18:33:44.274Z,2.42
2023-02-24T18:38:46.076Z,2.50
2023-02-24T18:43:48.698Z,1.75
2023-02-24T18:48:50.855Z,1.10
2023-02-24T18:53:53.221Z,1.10
2023-02-24T18:58:58.967Z,1.58
2023-02-24T19:04:01.153Z,1.38
2023-02-24T19:09:06.111Z,0.73
2023-02-24T19:14:07.804Z,0.80
2023-02-24T19:19:11.949Z,0.98
2023-02-24T19:24:14.130Z,1.13
2023-02-24T19:29:17.233Z,0.95
2023-02-24T19:34:18.694Z,0.88
2023-02-24T19:39:20.262Z,0.88
2023-02-24T19:44:21.783Z,2.67
2023-02-24T19:49:23.310Z,2.63
2023-02-24T19:54:24.886Z,3.75
2023-02-24T19:59:26.619Z,6.70
2023-02-24T20:04:28.110Z,1.98
2023-02-24T20:09:29.671Z,1.48
2023-02-24T20:14:31.131Z,1.08
2023-02-24T20:19:33.719Z,1.00
2023-02-24T20:24:35.362Z,1.23
2023-02-24T20:29:36.913Z,0.88
2023-02-24T20:34:38.514Z,0.80
2023-02-24T20:39:40.054Z,0.80
2023-02-24T20:44:41.568Z,1.60
2023-02-24T20:49:43.003Z,0.90
2023-02-24T20:54:45.720Z,0.77
2023-02-24T21:00:02.578Z,0.90
2023-02-24T21:05:04.950Z,0.98
2023-02-24T21:10:06.723Z,0.82
2023-02-24T21:15:08.462Z,0.52
2023-02-24T21:20:11.359Z,1.10
2023-02-24T21:25:12.818Z,0.82
2023-02-24T21:30:14.345Z,0.77
2023-02-24T21:35:15.795Z,0.90
2023-02-24T21:40:17.726Z,0.75
2023-02-24T21:45:19.411Z,0.50
2023-02-24T21:50:22.184Z,0.52
2023-02-24T21:55:23.610Z,0.88
2023-02-24T22:00:25.212Z,0.68
2023-02-24T22:05:26.867Z,0.75
2023-02-24T22:10:28.366Z,0.77
2023-02-24T22:15:29.814Z,1.13
2023-02-24T22:20:31.298Z,0.68
2023-02-24T22:25:34.826Z,0.63
2023-02-24T22:30:36.305Z,0.68
2023-02-24T22:35:37.797Z,0.95
2023-02-24T22:40:39.318Z,0.80
2023-02-24T22:45:40.811Z,0.98
2023-02-24T22:50:42.304Z,0.93
2023-02-24T22:55:47.590Z,0.88
2023-02-24T23:00:49.649Z,0.75
2023-02-24T23:06:01.081Z,0.63
2023-02-24T23:11:07.221Z,1.25
2023-02-24T23:16:11.633Z,5.05
2023-02-24T23:21:13.099Z,3.45
2023-02-24T23:26:14.725Z,2.50
2023-02-24T23:31:20.230Z,1.27
2023-02-24T23:36:22.969Z,1.15
2023-02-24T23:41:24.654Z,1.27
2023-02-24T23:46:26.140Z,1.10
2023-02-24T23:51:35.746Z,0.88
2023-02-24T23:56:41.120Z,1.08
